Time;durP1;ratioP1;P1;durP2;ratioP2;P2;SDS_P1;SDS_P2;PMS_P1;PMS_P2;Temp;Humidity;BMP_temperature;BMP_pressure;BME280_temperature;BME280_humidity;BME280_pressure;Samples;Min_cycle;Max_cycle;Signal;HPM_P1;HPM_P2
2022/03/28 00:00:07;;;;;;;0.10;0.10;;;;;;;10.21;86.85;102020.13;5009706;28;20105;-71
2022/03/28 00:02:36;;;;;;;0.35;0.30;;;;;;;10.26;85.76;102017.28;5005636;28;20061;-71
2022/03/28 00:05:01;;;;;;;0.28;0.28;;;;;;;10.18;86.09;102015.38;4979380;28;20065;-71
2022/03/28 00:07:27;;;;;;;0.47;0.40;;;;;;;10.29;85.64;102016.63;5014308;28;20545;-71
2022/03/28 00:09:52;;;;;;;0.10;0.10;;;;;;;10.22;85.53;102010.94;5013741;28;20375;-71
2022/03/28 00:12:18;;;;;;;0.10;0.10;;;;;;;10.08;86.17;102010.28;4995453;28;20670;-71
2022/03/28 00:14:43;;;;;;;0.32;0.32;;;;;;;10.14;86.24;102009.84;5013310;28;20073;-72
2022/03/28 00:17:09;;;;;;;0.10;0.10;;;;;;;10.15;85.79;102011.41;5006525;28;20034;-71
2022/03/28 00:19:34;;;;;;;0.20;0.20;;;;;;;10.15;85.83;102000.66;5003717;28;20029;-72
2022/03/28 00:22:00;;;;;;;0.10;0.10;;;;;;;10.10;86.06;102002.72;5003211;28;20049;-71
2022/03/28 00:24:25;;;;;;;0.10;0.10;;;;;;;10.21;85.86;102010.16;5008243;28;20117;-71
2022/03/28 00:26:51;;;;;;;0.25;0.25;;;;;;;10.06;86.71;102010.59;5010768;28;20053;-71
2022/03/28 00:29:16;;;;;;;0.10;0.10;;;;;;;10.12;86.77;102006.69;5009102;28;20049;-71
2022/03/28 00:31:42;;;;;;;0.10;0.10;;;;;;;10.28;85.74;101996.97;5012457;28;20088;-72
2022/03/28 00:34:08;;;;;;;0.20;0.20;;;;;;;10.13;86.44;101991.28;4995564;28;20026;-71
2022/03/28 00:36:34;;;;;;;0.10;0.10;;;;;;;10.31;85.59;101987.47;5007555;28;20128;-72
2022/03/28 00:38:59;;;;;;;0.20;0.20;;;;;;;10.09;86.80;101985.72;5013384;28;20109;-72
2022/03/28 00:41:25;;;;;;;1.30;0.38;;;;;;;10.03;87.55;101970.84;4987747;28;20049;-71
2022/03/28 00:43:56;;;;;;;0.15;0.15;;;;;;;10.07;87.54;101974.50;4995140;28;20096;-71
2022/03/28 00:46:22;;;;;;;0.10;0.10;;;;;;;10.07;88.35;101973.69;5012931;28;20394;-72
2022/03/28 00:48:48;;;;;;;0.52;0.52;;;;;;;10.04;87.61;101967.84;5009487;28;20039;-71
2022/03/28 00:51:15;;;;;;;0.20;0.20;;;;;;;10.01;88.31;101960.41;5014225;28;20034;-71
2022/03/28 00:53:41;;;;;;;0.10;0.10;;;;;;;9.90;88.73;101955.69;5012563;28;20506;-72
2022/03/28 00:56:07;;;;;;;0.30;0.30;;;;;;;9.88;88.90;101958.69;5009775;28;20042;-72
2022/03/28 00:58:33;;;;;;;0.20;0.20;;;;;;;9.85;89.36;101948.53;5011708;28;20087;-71
2022/03/28 01:00:59;;;;;;;0.47;0.47;;;;;;;9.91;88.96;101946.50;5013096;28;20044;-71
2022/03/28 01:03:25;;;;;;;0.10;0.10;;;;;;;9.88;89.19;101942.53;5012872;28;20033;-72
2022/03/28 01:05:50;;;;;;;0.40;0.40;;;;;;;9.94;88.52;101948.56;5010560;28;20028;-72
2022/03/28 01:08:16;;;;;;;0.60;0.60;;;;;;;10.10;86.95;101941.59;5011717;28;20062;-72
2022/03/28 01:10:45;;;;;;;0.10;0.10;;;;;;;9.96;87.39;101939.06;5009367;28;20479;-71
2022/03/28 01:13:10;;;;;;;0.10;0.10;;;;;;;10.08;86.40;101934.94;5012738;28;20115;-71
2022/03/28 01:15:36;;;;;;;0.85;0.85;;;;;;;10.06;85.93;101929.06;4993827;28;20037;-71
2022/03/28 01:18:08;;;;;;;2.55;0.57;;;;;;;9.86;87.41;101927.81;5010738;28;20100;-71
2022/03/28 01:20:36;;;;;;;0.20;0.20;;;;;;;9.79;87.04;101927.53;5011255;28;20068;-71
2022/03/28 01:23:03;;;;;;;0.20;0.20;;;;;;;9.72;88.17;101927.19;5012853;28;20042;-71
2022/03/28 01:25:31;;;;;;;0.40;0.32;;;;;;;9.65;88.29;101911.56;5009313;28;20038;-71
2022/03/28 01:27:59;;;;;;;0.40;0.40;;;;;;;9.87;87.24;101914.03;5011096;28;20053;-72
2022/03/28 01:30:26;;;;;;;0.30;0.30;;;;;;;9.80;87.16;101912.94;5012592;28;20037;-71
2022/03/28 01:32:52;;;;;;;0.35;0.35;;;;;;;9.64;88.76;101914.56;5011888;28;20037;-71
2022/03/28 01:35:33;;;;;;;0.17;0.17;;;;;;;9.65;88.50;101900.78;5012068;28;20029;-71
2022/03/28 01:38:01;;;;;;;0.10;0.10;;;;;;;9.64;89.23;101909.19;4992144;28;20092;-72
2022/03/28 01:40:28;;;;;;;0.10;0.10;;;;;;;9.61;89.37;101907.91;5009068;28;20517;-71
2022/03/28 01:42:53;;;;;;;0.43;0.43;;;;;;;9.70;88.76;101910.56;5012201;28;20461;-71
2022/03/28 01:45:20;;;;;;;1.58;1.15;;;;;;;9.76;88.23;101907.41;5007632;28;20030;-71
2022/03/28 01:47:46;;;;;;;0.10;0.10;;;;;;;9.63;88.98;101908.38;5016629;28;20089;-71
2022/03/28 01:50:12;;;;;;;0.32;0.28;;;;;;;9.50;90.18;101901.28;4995706;28;20038;-71
2022/03/28 01:52:37;;;;;;;0.22;0.22;;;;;;;9.52;90.73;101906.31;5012385;28;20040;-72
2022/03/28 01:55:04;;;;;;;0.10;0.10;;;;;;;9.52;90.90;101896.38;5011624;28;20037;-72
2022/03/28 01:57:30;;;;;;;0.10;0.10;;;;;;;9.81;88.36;101893.03;4992659;28;20049;-71
2022/03/28 01:59:55;;;;;;;0.50;0.50;;;;;;;9.60;89.72;101886.72;5007060;28;20084;-71
2022/03/28 02:02:20;;;;;;;0.20;0.20;;;;;;;9.53;90.20;101881.81;4994359;28;20121;-72
2022/03/28 02:04:46;;;;;;;0.20;0.20;;;;;;;9.67;88.37;101874.38;5012351;28;20046;-71
2022/03/28 02:07:11;;;;;;;0.40;0.40;;;;;;;9.48;89.96;101873.91;4993086;28;20092;-71
2022/03/28 02:09:37;;;;;;;0.20;0.20;;;;;;;9.45;90.65;101876.41;5010663;28;20521;-71
2022/03/28 02:12:02;;;;;;;0.30;0.30;;;;;;;9.42;91.12;101874.38;5011198;28;20087;-71
2022/03/28 02:14:27;;;;;;;0.32;0.32;;;;;;;9.46;91.65;101875.31;5009921;28;20038;-70
2022/03/28 02:16:53;;;;;;;0.10;0.10;;;;;;;9.60;90.41;101875.97;5005391;28;20079;-72
2022/03/28 02:19:18;;;;;;;0.25;0.25;;;;;;;9.60;90.33;101867.91;5011844;28;20033;-71
2022/03/28 02:21:44;;;;;;;0.28;0.28;;;;;;;9.56;91.04;101862.34;5010795;28;20038;-70
2022/03/28 02:24:09;;;;;;;0.10;0.10;;;;;;;9.66;90.16;101858.53;5011216;28;20037;-71
2022/03/28 02:26:35;;;;;;;0.20;0.20;;;;;;;9.62;89.09;101858.38;5010578;28;20081;-71
2022/03/28 02:29:00;;;;;;;0.40;0.40;;;;;;;9.65;89.57;101855.06;5010118;28;20087;-71
2022/03/28 02:31:26;;;;;;;0.10;0.10;;;;;;;9.41;90.07;101845.91;5005617;28;20038;-71
2022/03/28 02:33:51;;;;;;;0.30;0.30;;;;;;;9.41;90.36;101856.66;5009172;28;20025;-71
2022/03/28 02:36:17;;;;;;;0.45;0.45;;;;;;;9.36;90.26;101854.94;5009437;28;20581;-72
2022/03/28 02:38:42;;;;;;;0.10;0.10;;;;;;;9.26;91.46;101852.56;5007311;28;20096;-71
2022/03/28 02:41:07;;;;;;;8.57;0.73;;;;;;;9.33;90.82;101849.41;5005345;28;20482;-71
2022/03/28 02:43:33;;;;;;;1.10;0.55;;;;;;;9.29;90.57;101849.22;5009063;28;20042;-71
2022/03/28 02:45:58;;;;;;;0.43;0.43;;;;;;;9.29;90.99;101843.06;5005487;28;20092;-71
2022/03/28 02:48:24;;;;;;;0.10;0.10;;;;;;;9.22;91.13;101853.47;5015016;28;20037;-71
2022/03/28 02:50:49;;;;;;;0.40;0.40;;;;;;;9.19;91.41;101838.00;5011251;28;20038;-72
2022/03/28 02:53:15;;;;;;;0.70;0.70;;;;;;;9.05;92.61;101847.00;4999794;28;20041;-72
2022/03/28 02:55:41;;;;;;;0.22;0.22;;;;;;;9.13;92.37;101847.31;5006344;28;20038;-72
2022/03/28 02:58:06;;;;;;;0.40;0.40;;;;;;;9.08;92.44;101849.06;5000828;28;20026;-72
2022/03/28 03:00:32;;;;;;;0.28;0.28;;;;;;;9.15;91.97;101847.81;5009785;28;20108;-71
2022/03/28 03:02:57;;;;;;;0.28;0.28;;;;;;;9.35;91.07;101839.13;5007120;28;20029;-71
2022/03/28 03:05:23;;;;;;;0.38;0.38;;;;;;;9.28;91.19;101836.91;5010746;28;20553;-71
2022/03/28 03:07:51;;;;;;;0.20;0.20;;;;;;;9.21;91.54;101830.41;5010342;28;20088;-72
2022/03/28 03:10:16;;;;;;;0.10;0.10;;;;;;;9.20;91.37;101836.88;5009781;28;20096;-71
2022/03/28 03:12:42;;;;;;;0.20;0.20;;;;;;;9.18;90.48;101831.03;5011553;28;20018;-73
2022/03/28 03:15:08;;;;;;;2.03;1.08;;;;;;;9.08;90.32;101822.19;5006248;28;20477;-72
2022/03/28 03:17:35;;;;;;;0.45;0.45;;;;;;;8.96;91.13;101819.31;5007482;28;20042;-72
2022/03/28 03:20:01;;;;;;;0.80;0.52;;;;;;;8.95;91.25;101808.91;5004341;28;20109;-71
2022/03/28 03:22:26;;;;;;;0.20;0.20;;;;;;;8.92;91.36;101807.63;5005357;28;20469;-72
2022/03/28 03:24:52;;;;;;;0.70;0.57;;;;;;;9.05;89.95;101817.47;5005380;28;20076;-72
2022/03/28 03:27:17;;;;;;;1.02;0.60;;;;;;;9.03;90.30;101811.59;5007289;28;20025;-72
2022/03/28 03:29:43;;;;;;;0.15;0.15;;;;;;;8.91;91.71;101816.81;5008247;28;20041;-70
2022/03/28 03:32:08;;;;;;;0.10;0.10;;;;;;;8.88;92.39;101814.72;5008547;28;20045;-72
2022/03/28 03:34:34;;;;;;;0.35;0.35;;;;;;;9.01;91.73;101815.72;5008076;28;20136;-72
2022/03/28 03:37:00;;;;;;;0.60;0.60;;;;;;;8.90;91.77;101815.22;5007945;28;20049;-72
2022/03/28 03:39:27;;;;;;;0.32;0.32;;;;;;;8.82;92.63;101801.78;5007575;28;20042;-72
2022/03/28 03:41:53;;;;;;;0.50;0.50;;;;;;;8.89;93.07;101802.91;5005317;28;20041;-72
2022/03/28 03:44:19;;;;;;;0.20;0.20;;;;;;;8.92;92.24;101802.25;5008229;28;20041;-72
2022/03/28 03:46:45;;;;;;;0.40;0.40;;;;;;;8.89;92.37;101810.16;5004413;28;20034;-71
2022/03/28 03:49:11;;;;;;;0.13;0.13;;;;;;;8.89;92.54;101808.28;5008381;28;20425;-72
2022/03/28 03:51:37;;;;;;;0.73;0.73;;;;;;;8.95;92.04;101808.91;4998771;28;20096;-71
2022/03/28 03:54:03;;;;;;;0.40;0.30;;;;;;;9.04;91.59;101807.81;5005012;28;20038;-71
2022/03/28 03:56:28;;;;;;;0.10;0.10;;;;;;;8.95;92.91;101804.31;4989670;28;20041;-72
2022/03/28 03:58:55;;;;;;;0.28;0.28;;;;;;;8.93;93.05;101803.06;5004369;28;20030;-71
2022/03/28 04:01:21;;;;;;;0.38;0.38;;;;;;;8.94;92.40;101808.09;5007288;28;20498;-71
2022/03/28 04:03:47;;;;;;;0.47;0.45;;;;;;;9.14;91.38;101805.94;5007132;28;20076;-71
2022/03/28 04:06:12;;;;;;;0.10;0.10;;;;;;;8.92;92.25;101799.56;4999705;28;20061;-70
2022/03/28 04:08:38;;;;;;;0.20;0.20;;;;;;;8.84;93.30;101811.13;5004126;28;20448;-72
2022/03/28 04:11:04;;;;;;;0.10;0.10;;;;;;;9.05;91.64;101795.16;5006111;28;20048;-71
2022/03/28 04:13:31;;;;;;;0.40;0.32;;;;;;;8.95;91.91;101796.28;5003060;28;20037;-72
2022/03/28 04:15:57;;;;;;;0.28;0.28;;;;;;;8.79;92.86;101791.66;5007031;28;20037;-71
2022/03/28 04:18:25;;;;;;;0.40;0.40;;;;;;;8.76;93.42;101790.41;5004506;28;20030;-71
2022/03/28 04:20:52;;;;;;;0.40;0.40;;;;;;;8.82;93.37;101786.47;5004762;28;20037;-71
2022/03/28 04:23:17;;;;;;;0.52;0.52;;;;;;;8.76;93.70;101776.19;5008658;28;20403;-71
2022/03/28 04:25:43;;;;;;;0.65;0.63;;;;;;;8.92;93.39;101771.94;5003599;28;20029;-71
2022/03/28 04:28:08;;;;;;;0.45;0.30;;;;;;;9.01;92.22;101776.22;5007887;28;20037;-72
2022/03/28 04:30:34;;;;;;;0.10;0.10;;;;;;;8.93;92.90;101784.25;5009407;28;20121;-70
2022/03/28 04:33:00;;;;;;;0.38;0.38;;;;;;;8.72;94.15;101777.91;5008239;28;20505;-71
2022/03/28 04:35:25;;;;;;;0.10;0.10;;;;;;;8.74;94.36;101781.88;5006003;28;20117;-71
2022/03/28 04:37:51;;;;;;;0.10;0.10;;;;;;;8.87;93.40;101782.81;5006281;28;20046;-71
2022/03/28 04:40:19;;;;;;;0.10;0.10;;;;;;;8.75;93.69;101772.69;4997363;22;20050;-73
2022/03/28 04:42:48;;;;;;;0.20;0.20;;;;;;;8.71;93.64;101777.13;4962804;28;20118;-72
2022/03/28 04:45:14;;;;;;;0.32;0.32;;;;;;;8.76;93.57;101776.97;4966863;28;20114;-72
2022/03/28 04:47:40;;;;;;;0.15;0.15;;;;;;;8.76;93.88;101786.94;4967644;28;20082;-72
2022/03/28 04:50:07;;;;;;;0.10;0.10;;;;;;;8.73;93.17;101771.47;4962452;28;20031;-72
2022/03/28 04:52:33;;;;;;;0.13;0.13;;;;;;;8.73;93.81;101782.97;4969337;28;20042;-72
2022/03/28 04:54:58;;;;;;;0.20;0.20;;;;;;;8.59;94.72;101766.22;4961669;28;20197;-72
2022/03/28 04:57:24;;;;;;;0.10;0.10;;;;;;;8.57;95.40;101762.25;4963083;28;20035;-73
2022/03/28 04:59:49;;;;;;;0.10;0.10;;;;;;;8.71;94.79;101766.38;4971270;28;20043;-73
2022/03/28 05:02:15;;;;;;;0.10;0.10;;;;;;;8.85;93.49;101767.03;4968640;28;20027;-72
2022/03/28 05:04:41;;;;;;;0.10;0.10;;;;;;;8.75;93.98;101759.28;4965564;28;20042;-72
2022/03/28 05:07:06;;;;;;;0.57;0.57;;;;;;;8.60;95.46;101756.25;4962580;28;20467;-72
2022/03/28 05:09:32;;;;;;;0.10;0.10;;;;;;;8.61;95.88;101755.16;4959763;28;20045;-73
2022/03/28 05:11:58;;;;;;;0.20;0.20;;;;;;;8.65;96.22;101756.88;4966057;28;20115;-71
2022/03/28 05:14:23;;;;;;;0.20;0.20;;;;;;;8.68;96.02;101747.41;4969944;28;20553;-70
2022/03/28 05:16:49;;;;;;;0.10;0.10;;;;;;;8.75;95.64;101748.53;4960980;28;20043;-72
2022/03/28 05:19:15;;;;;;;1.17;0.68;;;;;;;8.81;94.27;101751.84;4965630;28;20064;-72
2022/03/28 05:21:40;;;;;;;0.30;0.30;;;;;;;8.80;94.31;101756.44;4964993;28;20034;-72
2022/03/28 05:24:06;;;;;;;0.20;0.20;;;;;;;8.86;94.17;101757.09;4969917;28;20038;-73
2022/03/28 05:26:32;;;;;;;0.35;0.35;;;;;;;8.74;95.06;101748.84;4966775;28;20074;-74
2022/03/28 05:28:57;;;;;;;0.00;0.00;;;;;;;8.72;95.78;101748.38;4967417;28;20063;-73
2022/03/28 05:31:23;;;;;;;0.20;0.20;;;;;;;8.63;96.15;101744.91;4964766;28;20656;-73
2022/03/28 05:33:48;;;;;;;0.20;0.20;;;;;;;8.60;96.65;101757.06;4968993;28;20451;-73
2022/03/28 05:36:14;;;;;;;0.10;0.10;;;;;;;8.78;95.92;101745.22;4967276;28;20475;-72
2022/03/28 05:38:40;;;;;;;0.10;0.10;;;;;;;8.83;95.28;101734.31;4969492;28;20041;-72
2022/03/28 05:41:06;;;;;;;0.20;0.20;;;;;;;8.79;95.30;101740.63;4962409;28;20042;-72
2022/03/28 05:43:36;;;;;;;0.10;0.10;;;;;;;8.79;94.87;101732.56;4984552;28;20520;-71
2022/03/28 05:46:03;;;;;;;0.17;0.17;;;;;;;8.72;94.45;101735.75;4968106;28;20026;-72
2022/03/28 05:48:34;;;;;;;0.10;0.10;;;;;;;8.71;94.57;101736.84;4967241;28;20026;-72
2022/03/28 05:51:02;;;;;;;0.10;0.10;;;;;;;8.86;93.56;101736.41;4972001;28;20487;-73
2022/03/28 05:53:28;;;;;;;0.20;0.20;;;;;;;8.89;93.13;101740.31;4969092;28;20034;-73
2022/03/28 05:55:53;;;;;;;0.10;0.10;;;;;;;8.83;92.75;101742.38;4972319;28;20035;-72
2022/03/28 05:58:19;;;;;;;0.10;0.10;;;;;;;8.89;92.42;101740.31;4969948;28;20499;-72
2022/03/28 06:00:44;;;;;;;0.17;0.17;;;;;;;8.75;91.96;101737.78;4972665;28;20034;-72
2022/03/28 06:03:10;;;;;;;0.10;0.10;;;;;;;8.69;93.53;101730.22;4971627;28;20065;-74
2022/03/28 06:05:36;;;;;;;0.10;0.10;;;;;;;8.88;92.08;101733.38;4968836;28;20056;-73
2022/03/28 06:08:03;;;;;;;0.17;0.15;;;;;;;8.84;92.75;101730.53;4970082;28;20423;-73
2022/03/28 06:10:29;;;;;;;0.10;0.10;;;;;;;8.76;92.54;101730.53;4970972;28;20093;-73
2022/03/28 06:12:54;;;;;;;0.10;0.10;;;;;;;8.77;93.66;101729.41;4973814;28;20038;-72
2022/03/28 06:15:20;;;;;;;0.10;0.10;;;;;;;8.68;94.08;101732.13;4970434;28;20044;-72
2022/03/28 06:17:46;;;;;;;0.88;0.38;;;;;;;8.78;94.24;101733.69;4972981;28;20085;-72
2022/03/28 06:20:12;;;;;;;0.10;0.10;;;;;;;8.84;94.37;101725.19;4972672;28;20031;-72
2022/03/28 06:22:37;;;;;;;0.10;0.10;;;;;;;9.00;92.90;101725.50;4971496;28;20399;-72
2022/03/28 06:25:04;;;;;;;0.20;0.20;;;;;;;8.91;93.73;101720.09;4965222;28;20027;-73
2022/03/28 06:27:30;;;;;;;0.10;0.10;;;;;;;8.80;94.46;101726.91;4967316;28;20031;-72
2022/03/28 06:29:56;;;;;;;0.40;0.20;;;;;;;8.82;93.56;101730.06;4968614;28;20027;-73
2022/03/28 06:32:22;;;;;;;0.10;0.10;;;;;;;8.79;93.84;101725.31;4971520;28;20054;-73
2022/03/28 06:34:48;;;;;;;0.28;0.28;;;;;;;8.77;93.98;101735.59;4966594;28;20027;-73
2022/03/28 06:37:17;;;;;;;0.10;0.10;;;;;;;8.85;93.99;101728.63;4964951;28;20054;-72
2022/03/28 06:39:42;;;;;;;0.10;0.10;;;;;;;8.95;92.46;101725.63;4966572;28;20078;-73
2022/03/28 06:42:08;;;;;;;0.10;0.10;;;;;;;8.78;93.10;101726.44;4967105;28;20066;-73
2022/03/28 06:44:34;;;;;;;0.30;0.30;;;;;;;8.75;93.65;101721.69;4966812;28;20127;-74
2022/03/28 06:47:00;;;;;;;0.10;0.10;;;;;;;8.72;93.59;101716.94;4964714;28;20495;-74
2022/03/28 06:49:25;;;;;;;0.10;0.10;;;;;;;8.95;91.99;101709.50;4965849;28;20055;-75
2022/03/28 06:51:51;;;;;;;0.10;0.10;;;;;;;8.80;92.64;101705.44;4968096;28;20033;-72
2022/03/28 06:54:19;;;;;;;0.10;0.10;;;;;;;8.76;92.89;101704.47;4969302;28;20046;-72
2022/03/28 06:56:46;;;;;;;0.20;0.20;;;;;;;8.91;91.05;101698.63;4964883;28;20042;-72
2022/03/28 06:59:12;;;;;;;0.10;0.10;;;;;;;9.03;89.21;101697.97;4966029;28;20085;-73
2022/03/28 07:01:41;;;;;;;0.10;0.10;;;;;;;8.79;90.05;101695.78;4964115;28;20602;-72
2022/03/28 07:04:10;;;;;;;0.10;0.10;;;;;;;8.71;91.42;101695.78;4964776;28;20494;-73
2022/03/28 07:06:35;;;;;;;0.17;0.17;;;;;;;8.76;90.79;101691.06;4962922;28;20098;-72
2022/03/28 07:09:04;;;;;;;0.10;0.10;;;;;;;8.89;90.42;101690.09;4962480;28;20043;-72
2022/03/28 07:11:30;;;;;;;0.10;0.10;;;;;;;8.75;91.29;101686.78;4967191;28;20038;-72
2022/03/28 07:13:55;;;;;;;0.10;0.10;;;;;;;8.88;90.38;101685.81;4969736;28;20110;-72
2022/03/28 07:16:21;;;;;;;0.20;0.20;;;;;;;8.74;90.86;101677.16;4969857;28;20043;-72
2022/03/28 07:18:46;;;;;;;0.10;0.10;;;;;;;8.97;90.06;101680.44;4982424;28;20126;-73
2022/03/28 07:21:12;;;;;;;0.10;0.10;;;;;;;8.83;90.92;101691.34;4960918;28;20047;-73
2022/03/28 07:23:37;;;;;;;0.10;0.10;;;;;;;8.94;90.96;101689.16;4970054;28;20049;-73
2022/03/28 07:26:03;;;;;;;0.28;0.28;;;;;;;8.76;91.85;101674.94;4965501;28;20038;-72
2022/03/28 07:28:29;;;;;;;0.10;0.10;;;;;;;9.01;90.56;101684.88;4963629;28;20190;-73
2022/03/28 07:30:55;;;;;;;0.10;0.10;;;;;;;9.08;90.18;101677.09;4965913;28;20121;-72
2022/03/28 07:33:20;;;;;;;0.35;0.35;;;;;;;9.01;90.22;101686.75;4967067;28;20736;-73
2022/03/28 07:35:46;;;;;;;0.25;0.25;;;;;;;8.96;90.23;101679.63;4968481;28;20064;-73
2022/03/28 07:38:11;;;;;;;0.10;0.10;;;;;;;8.96;90.45;101682.31;4965898;28;20053;-73
2022/03/28 07:40:38;;;;;;;0.25;0.25;;;;;;;8.91;90.50;101674.44;4964069;28;20035;-72
2022/03/28 07:43:04;;;;;;;0.10;0.10;;;;;;;9.09;89.59;101669.84;4960965;28;20463;-72
2022/03/28 07:45:30;;;;;;;0.10;0.10;;;;;;;9.15;89.41;101667.75;4964768;28;20062;-72
2022/03/28 07:47:56;;;;;;;0.10;0.10;;;;;;;9.32;88.10;101673.88;4962468;28;20046;-72
2022/03/28 07:50:22;;;;;;;0.40;0.40;;;;;;;9.35;87.58;101667.09;4964396;28;20039;-72
2022/03/28 07:52:50;;;;;;;0.10;0.10;;;;;;;9.29;88.15;101668.38;4960121;28;20069;-72
2022/03/28 07:55:16;;;;;;;0.10;0.10;;;;;;;9.26;88.44;101666.31;4965492;28;20039;-72
2022/03/28 07:57:43;;;;;;;0.10;0.10;;;;;;;9.19;88.28;101666.03;4965762;28;20050;-72
2022/03/28 08:00:14;;;;;;;0.10;0.10;;;;;;;9.30;87.84;101668.03;4959525;28;20114;-74
2022/03/28 08:02:40;;;;;;;0.52;0.47;;;;;;;9.26;88.28;101660.94;4966625;28;20054;-72
2022/03/28 08:05:07;;;;;;;0.10;0.10;;;;;;;9.16;88.85;101661.28;4965861;28;20395;-72
2022/03/28 08:07:33;;;;;;;0.10;0.10;;;;;;;9.18;88.84;101648.31;4961906;28;20066;-74
2022/03/28 08:09:58;;;;;;;0.20;0.20;;;;;;;9.43;87.33;101645.53;4965707;28;20047;-74
2022/03/28 08:12:24;;;;;;;0.10;0.10;;;;;;;9.23;88.04;101648.94;4963360;28;20157;-72
2022/03/28 08:14:51;;;;;;;0.45;0.45;;;;;;;9.27;88.82;101643.72;4962379;28;20035;-73
2022/03/28 08:17:19;;;;;;;0.10;0.10;;;;;;;9.36;88.45;101650.63;4962573;28;20062;-73
2022/03/28 08:19:45;;;;;;;0.10;0.10;;;;;;;9.43;88.36;101639.38;4979389;28;20105;-72
2022/03/28 08:22:10;;;;;;;0.13;0.13;;;;;;;9.41;87.96;101641.59;4961297;28;20110;-72
2022/03/28 08:24:35;;;;;;;0.10;0.10;;;;;;;9.51;87.99;101638.56;4961717;28;20073;-72
2022/03/28 08:27:01;;;;;;;0.10;0.10;;;;;;;9.58;87.36;101641.53;4960834;28;20030;-73
2022/03/28 08:29:26;;;;;;;0.10;0.10;;;;;;;9.58;87.54;101644.22;4970881;28;20471;-72
2022/03/28 08:31:52;;;;;;;0.47;0.47;;;;;;;9.52;87.45;101626.69;4969030;28;20077;-72
2022/03/28 08:34:19;;;;;;;0.73;0.73;;;;;;;9.49;88.34;101633.50;4963528;28;20066;-73
2022/03/28 08:36:45;;;;;;;0.20;0.20;;;;;;;9.49;88.25;101638.88;4965420;28;20180;-72
2022/03/28 08:39:10;;;;;;;0.35;0.35;;;;;;;9.57;87.22;101634.56;4964736;28;20039;-72
2022/03/28 08:41:36;;;;;;;0.20;0.20;;;;;;;9.47;87.55;101630.34;4967538;28;20043;-73
2022/03/28 08:44:02;;;;;;;0.15;0.15;;;;;;;9.42;88.35;101627.84;4963817;28;20039;-73
2022/03/28 08:46:29;;;;;;;0.10;0.10;;;;;;;9.43;88.25;101626.72;4968408;28;20113;-73
2022/03/28 08:48:56;;;;;;;0.10;0.10;;;;;;;9.52;88.46;101622.13;4965726;28;20030;-73
2022/03/28 08:51:21;;;;;;;0.10;0.10;;;;;;;9.62;86.87;101621.72;4967310;28;20026;-73
2022/03/28 08:53:47;;;;;;;0.20;0.20;;;;;;;9.61;86.88;101614.00;4969828;28;20496;-73
2022/03/28 08:56:13;;;;;;;0.20;0.20;;;;;;;9.60;86.72;101623.94;4966875;28;20039;-72
2022/03/28 08:58:38;;;;;;;0.20;0.20;;;;;;;9.77;86.13;101626.56;4969645;28;20075;-72
2022/03/28 09:01:05;;;;;;;0.10;0.10;;;;;;;9.63;86.73;101633.28;4970526;28;20048;-73
2022/03/28 09:03:49;;;;;;;0.10;0.10;;;;;;;9.85;85.76;101616.88;4968811;28;20387;-72
2022/03/28 09:06:37;;;;;;;0.40;0.40;;;;;;;9.75;86.44;101614.56;4969102;28;20039;-72
2022/03/28 09:09:21;;;;;;;0.10;0.10;;;;;;;9.91;86.06;101612.91;4967921;28;20419;-72
2022/03/28 09:11:51;;;;;;;0.10;0.10;;;;;;;9.82;86.96;101609.44;4964891;28;20034;-72
2022/03/28 09:14:24;;;;;;;0.20;0.20;;;;;;;9.91;86.37;101608.28;4967967;28;20038;-73
2022/03/28 09:17:11;;;;;;;0.10;0.10;;;;;;;9.84;86.36;101604.53;4966327;28;20031;-71
2022/03/28 09:19:52;;;;;;;0.10;0.10;;;;;;;9.65;87.18;101604.16;4968410;28;20499;-73
2022/03/28 09:22:23;;;;;;;0.10;0.10;;;;;;;9.67;87.13;101600.03;4965831;28;20118;-72
2022/03/28 09:24:50;;;;;;;0.10;0.10;;;;;;;9.65;87.46;101593.41;4969482;28;20403;-73
2022/03/28 09:27:17;;;;;;;0.10;0.10;;;;;;;9.72;86.97;101593.69;4967818;28;20027;-73
2022/03/28 09:30:00;;;;;;;0.30;0.30;;;;;;;9.64;86.52;101597.22;4965184;28;20035;-70
2022/03/28 09:32:32;;;;;;;0.10;0.10;;;;;;;9.82;86.41;101599.47;4969473;28;20038;-72
2022/03/28 09:35:09;;;;;;;0.00;0.00;;;;;;;9.89;85.82;101602.44;4963785;28;20035;-71
2022/03/28 09:37:58;;;;;;;0.10;0.10;;;;;;;9.93;85.50;101592.59;4966809;28;20491;-72
2022/03/28 09:40:26;;;;;;;0.10;0.10;;;;;;;9.96;85.58;101580.41;4968360;28;20102;-73
2022/03/28 09:42:52;;;;;;;0.10;0.10;;;;;;;10.21;84.23;101587.53;4968246;28;20085;-73
2022/03/28 09:45:20;;;;;;;0.10;0.10;;;;;;;10.25;83.88;101587.66;4982716;28;20046;-72
2022/03/28 09:48:01;;;;;;;0.15;0.15;;;;;;;10.39;82.50;101590.88;4968515;28;20035;-73
2022/03/28 09:50:38;;;;;;;0.10;0.10;;;;;;;10.34;83.36;101588.34;4967414;28;20045;-72
2022/03/28 09:53:20;;;;;;;0.30;0.30;;;;;;;10.50;81.60;101590.13;4964184;28;20452;-73
2022/03/28 09:55:52;;;;;;;0.13;0.13;;;;;;;10.35;81.90;101581.88;4966141;28;20034;-73
2022/03/28 09:58:48;;;;;;;0.32;0.32;;;;;;;10.45;82.60;101584.94;4984095;28;20787;-72
2022/03/28 10:01:17;;;;;;;0.20;0.20;;;;;;;10.41;82.12;101580.56;4964257;28;20054;-73
2022/03/28 10:03:45;;;;;;;0.38;0.38;;;;;;;10.59;81.60;101579.25;4969938;28;20419;-70
2022/03/28 10:06:11;;;;;;;0.10;0.10;;;;;;;10.70;81.40;101569.66;4968415;28;20104;-73
2022/03/28 10:08:38;;;;;;;0.10;0.10;;;;;;;10.64;81.46;101568.28;4963772;28;20031;-74
2022/03/28 10:11:04;;;;;;;0.25;0.25;;;;;;;10.68;80.80;101561.91;4966669;28;20555;-72
2022/03/28 10:13:30;;;;;;;0.35;0.35;;;;;;;10.78;80.52;101556.09;4984153;28;20389;-73
2022/03/28 10:15:57;;;;;;;0.10;0.10;;;;;;;10.91;78.95;101556.91;4970027;28;20050;-72
2022/03/28 10:18:23;;;;;;;0.10;0.10;;;;;;;11.24;77.83;101562.22;4967358;28;20035;-72
2022/03/28 10:20:54;;;;;;;0.25;0.25;;;;;;;11.40;76.92;101555.81;4967987;28;20030;-71
2022/03/28 10:23:26;;;;;;;0.20;0.20;;;;;;;11.42;77.68;101555.50;4970253;28;20039;-72
2022/03/28 10:25:54;;;;;;;0.20;0.20;;;;;;;11.29;77.82;101553.91;4981664;28;20071;-73
2022/03/28 10:28:20;;;;;;;0.10;0.10;;;;;;;11.29;77.78;101546.59;4969672;28;20022;-72
2022/03/28 10:30:47;;;;;;;0.10;0.10;;;;;;;11.42;77.29;101548.19;4966748;28;21637;-73
2022/03/28 10:33:21;;;;;;;0.10;0.10;;;;;;;11.33;78.38;101541.31;4966370;28;20504;-71
2022/03/28 10:35:59;;;;;;;0.10;0.10;;;;;;;11.46;76.36;101542.88;4963423;28;20448;-73
2022/03/28 10:38:26;;;;;;;0.10;0.10;;;;;;;11.43;76.55;101538.19;4982852;28;20073;-73
2022/03/28 10:41:05;;;;;;;0.10;0.10;;;;;;;11.78;77.42;101536.59;4967369;28;20062;-73
2022/03/28 10:43:33;;;;;;;0.10;0.10;;;;;;;11.92;76.16;101537.03;4965742;28;20498;-73
2022/03/28 10:46:06;;;;;;;0.10;0.10;;;;;;;12.07;75.33;101520.09;4966121;28;20125;-70
2022/03/28 10:48:34;;;;;;;0.10;0.10;;;;;;;12.35;74.53;101520.09;4961735;28;20106;-72
2022/03/28 10:51:21;;;;;;;0.10;0.10;;;;;;;12.46;74.07;101521.16;4959448;28;20121;-73
2022/03/28 10:54:07;;;;;;;0.10;0.10;;;;;;;12.72;71.82;101513.34;4959235;28;20041;-71
2022/03/28 10:56:57;;;;;;;0.40;0.40;;;;;;;12.89;70.08;101518.41;4964543;28;20112;-78
2022/03/28 10:59:23;;;;;;;0.15;0.15;;;;;;;12.80;70.87;101511.59;4968644;28;20042;-73
2022/03/28 11:01:52;;;;;;;0.32;0.32;;;;;;;12.84;70.71;101512.47;4968245;28;20071;-76
2022/03/28 11:04:19;;;;;;;0.70;0.40;;;;;;;12.85;70.93;101505.94;4969111;28;20451;-72
2022/03/28 11:07:05;;;;;;;0.10;0.10;;;;;;;12.60;71.07;101498.00;4960161;28;20402;-74
2022/03/28 11:10:00;;;;;;;0.10;0.10;;;;;;;12.58;70.82;101502.19;4964347;28;20042;-73
2022/03/28 11:12:39;;;;;;;0.00;0.00;;;;;;;12.84;69.93;101488.94;4962057;28;20470;-74
2022/03/28 11:15:08;;;;;;;0.43;0.43;;;;;;;13.13;69.01;101485.03;4968805;28;20034;-72
2022/03/28 11:17:38;;;;;;;0.10;0.10;;;;;;;13.28;67.59;101489.63;4962619;28;20113;-74
2022/03/28 11:20:12;;;;;;;0.10;0.10;;;;;;;13.26;68.27;101484.56;4967012;28;20053;-73
2022/03/28 11:22:51;;;;;;;0.35;0.35;;;;;;;13.48;67.65;101475.81;4964445;28;20407;-74
2022/03/28 11:25:46;;;;;;;0.20;0.20;;;;;;;13.69;66.34;101463.84;4959728;28;20165;-72
2022/03/28 11:28:24;;;;;;;0.70;0.25;;;;;;;13.91;64.34;101457.72;4964070;28;20042;-72
2022/03/28 11:31:11;;;;;;;0.30;0.30;;;;;;;13.92;64.31;101453.88;4978391;28;20050;-72
2022/03/28 11:33:43;;;;;;;0.20;0.20;;;;;;;13.98;63.16;101453.22;4966538;28;20050;-72